createdAt,value
2023-05-14T00:00:02.750Z,13.55
2023-05-14T00:02:30.258Z,16.98
2023-05-14T00:04:57.482Z,14.68
2023-05-14T00:07:31.023Z,13.07
2023-05-14T00:09:58.953Z,15.73
2023-05-14T00:12:26.786Z,12.80
2023-05-14T00:14:54.338Z,12.07
2023-05-14T00:17:21.414Z,12.85
2023-05-14T00:19:50.751Z,12.43
2023-05-14T00:22:17.591Z,10.90
2023-05-14T00:24:45.686Z,11.80
2023-05-14T00:27:12.494Z,10.20
2023-05-14T00:29:41.219Z,11.80
2023-05-14T00:32:08.561Z,9.55
2023-05-14T00:34:36.205Z,10.68
2023-05-14T00:37:05.290Z,10.63
2023-05-14T00:39:32.575Z,10.52
2023-05-14T00:41:59.510Z,10.25
2023-05-14T00:44:28.656Z,10.00
2023-05-14T00:46:56.415Z,9.05
2023-05-14T00:49:23.731Z,9.10
2023-05-14T00:51:51.131Z,9.45
2023-05-14T00:54:22.885Z,9.48
2023-05-14T00:56:51.071Z,9.30
2023-05-14T00:59:21.085Z,9.25
2023-05-14T01:01:48.174Z,8.05
2023-05-14T01:04:17.169Z,9.00
2023-05-14T01:07:05.421Z,9.07
2023-05-14T01:09:49.591Z,10.50
2023-05-14T01:12:45.631Z,8.75
2023-05-14T01:15:23.953Z,8.95
2023-05-14T01:17:59.509Z,8.27
2023-05-14T01:20:29.524Z,9.55
2023-05-14T01:22:57.706Z,9.52
2023-05-14T01:25:26.912Z,9.88
2023-05-14T01:28:12.869Z,9.45
2023-05-14T01:30:58.458Z,9.43
2023-05-14T01:33:27.180Z,9.15
2023-05-14T01:35:56.499Z,10.95
2023-05-14T01:38:24.278Z,8.52
2023-05-14T01:40:52.934Z,9.35
2023-05-14T01:43:21.258Z,9.27
2023-05-14T01:45:51.472Z,8.90
2023-05-14T01:48:18.741Z,9.93
2023-05-14T01:50:52.516Z,9.85
2023-05-14T01:53:19.451Z,10.05
2023-05-14T01:55:47.814Z,10.15
2023-05-14T01:58:15.012Z,10.02
2023-05-14T02:00:42.345Z,11.63
2023-05-14T02:03:10.233Z,10.95
2023-05-14T02:05:37.194Z,11.48
2023-05-14T02:08:05.546Z,12.45
2023-05-14T02:10:33.241Z,12.60
2023-05-14T02:13:01.577Z,12.38
2023-05-14T02:15:28.602Z,12.73
2023-05-14T02:17:55.468Z,12.70
2023-05-14T02:20:41.926Z,10.95
2023-05-14T02:23:08.882Z,12.25
2023-05-14T02:25:55.238Z,12.88
2023-05-14T02:28:22.076Z,12.30
2023-05-14T02:30:50.912Z,11.88
2023-05-14T02:33:17.979Z,13.32
2023-05-14T02:35:45.452Z,12.55
2023-05-14T02:38:13.924Z,13.60
2023-05-14T02:40:43.113Z,13.25
2023-05-14T02:43:10.341Z,13.55
2023-05-14T02:45:39.426Z,13.23
2023-05-14T02:48:06.963Z,13.48
2023-05-14T02:50:37.837Z,15.55
2023-05-14T02:53:04.885Z,15.35
2023-05-14T02:55:31.704Z,14.95
2023-05-14T02:57:58.985Z,14.00
2023-05-14T03:00:27.052Z,14.38
2023-05-14T03:02:54.485Z,14.52
2023-05-14T03:05:22.054Z,14.77
2023-05-14T03:08:03.001Z,15.70
2023-05-14T03:10:30.324Z,15.60
2023-05-14T03:12:57.712Z,16.70
2023-05-14T03:15:27.649Z,15.25
2023-05-14T03:18:04.260Z,16.83
2023-05-14T03:20:31.333Z,17.70
2023-05-14T03:22:58.806Z,16.42
2023-05-14T03:25:27.778Z,17.02
2023-05-14T03:27:54.707Z,18.65
2023-05-14T03:30:24.423Z,18.05
2023-05-14T03:32:52.279Z,18.02
2023-05-14T03:35:19.633Z,19.20
2023-05-14T03:37:46.591Z,17.00
2023-05-14T03:40:13.499Z,16.50
2023-05-14T03:42:40.971Z,16.77
2023-05-14T03:45:10.625Z,17.42
2023-05-14T03:47:39.726Z,16.58
2023-05-14T03:50:07.876Z,13.77
2023-05-14T03:52:35.967Z,16.20
2023-05-14T03:55:03.990Z,15.70
2023-05-14T03:57:31.318Z,16.48
2023-05-14T04:00:10.458Z,15.43
2023-05-14T04:02:46.090Z,15.52
2023-05-14T04:05:13.429Z,14.88
2023-05-14T04:07:40.573Z,14.85
2023-05-14T04:10:08.201Z,15.60
2023-05-14T04:12:36.221Z,14.80
2023-05-14T04:15:04.417Z,14.65
2023-05-14T04:17:32.659Z,15.68
2023-05-14T04:20:01.173Z,15.50
2023-05-14T04:22:30.768Z,15.85
2023-05-14T04:24:57.627Z,14.45
2023-05-14T04:27:24.587Z,15.45
2023-05-14T04:29:51.628Z,13.50
2023-05-14T04:32:18.642Z,14.27
2023-05-14T04:34:48.007Z,14.80
2023-05-14T04:37:15.180Z,14.55
2023-05-14T04:39:47.506Z,15.30
2023-05-14T04:42:14.302Z,16.02
2023-05-14T04:44:49.346Z,14.10
2023-05-14T04:47:16.414Z,13.85
2023-05-14T04:49:48.703Z,13.88
2023-05-14T04:52:15.875Z,14.18
2023-05-14T04:54:45.165Z,12.27
2023-05-14T04:57:13.520Z,13.25
2023-05-14T04:59:40.990Z,11.90
2023-05-14T05:02:08.071Z,11.02
2023-05-14T05:04:35.357Z,11.55
2023-05-14T05:07:02.297Z,12.40
2023-05-14T05:09:30.614Z,12.13
2023-05-14T05:11:57.704Z,12.27
2023-05-14T05:14:24.969Z,11.10
2023-05-14T05:16:53.081Z,11.40
2023-05-14T05:19:26.535Z,12.18
2023-05-14T05:21:59.726Z,11.88
2023-05-14T05:24:34.556Z,11.30
2023-05-14T05:27:01.426Z,12.18
2023-05-14T05:29:28.259Z,12.52
2023-05-14T05:31:55.642Z,11.65
2023-05-14T05:34:24.747Z,11.02
2023-05-14T05:36:52.008Z,11.30
2023-05-14T05:39:20.953Z,11.77
2023-05-14T05:41:47.938Z,10.38
2023-05-14T05:44:15.341Z,9.88
2023-05-14T05:46:43.445Z,10.68
2023-05-14T05:49:10.244Z,10.73
2023-05-14T05:51:39.348Z,9.85
2023-05-14T05:54:07.520Z,9.40
2023-05-14T05:56:34.384Z,9.43
2023-05-14T05:59:04.173Z,8.38
2023-05-14T06:01:31.162Z,9.77
2023-05-14T06:03:58.203Z,8.80
2023-05-14T06:06:40.989Z,9.30
2023-05-14T06:09:09.131Z,11.02
2023-05-14T06:11:36.498Z,10.40
2023-05-14T06:14:10.588Z,11.10
2023-05-14T06:16:37.586Z,11.18
2023-05-14T06:19:04.990Z,11.80
2023-05-14T06:21:32.492Z,11.55
2023-05-14T06:23:59.810Z,10.68
2023-05-14T06:26:26.518Z,11.85
2023-05-14T06:28:53.520Z,10.90
2023-05-14T06:31:20.513Z,11.30
2023-05-14T06:33:47.723Z,11.52
2023-05-14T06:36:15.812Z,11.30
2023-05-14T06:38:42.906Z,11.32
2023-05-14T06:41:10.202Z,12.13
2023-05-14T06:43:37.080Z,11.73
2023-05-14T06:46:06.089Z,10.10
2023-05-14T06:48:33.150Z,9.70
2023-05-14T06:51:00.154Z,9.68
2023-05-14T06:53:28.008Z,9.90
2023-05-14T06:55:54.919Z,9.77
2023-05-14T06:58:22.058Z,9.20
2023-05-14T07:00:49.211Z,8.25
2023-05-14T07:03:16.073Z,9.05
2023-05-14T07:05:45.445Z,9.05
2023-05-14T07:08:13.863Z,9.13
2023-05-14T07:10:40.830Z,8.65
2023-05-14T07:13:08.457Z,8.57
2023-05-14T07:15:35.541Z,7.72
2023-05-14T07:18:02.818Z,8.95
2023-05-14T07:20:32.507Z,9.07
2023-05-14T07:23:00.339Z,8.32
2023-05-14T07:25:27.791Z,7.68
2023-05-14T07:27:54.871Z,7.68
2023-05-14T07:30:23.094Z,7.22
2023-05-14T07:32:50.327Z,7.75
2023-05-14T07:35:17.330Z,7.47
2023-05-14T07:37:44.332Z,7.45
2023-05-14T07:40:14.496Z,6.30
2023-05-14T07:42:41.597Z,6.88
2023-05-14T07:45:09.992Z,6.10
2023-05-14T07:47:37.093Z,6.47
2023-05-14T07:50:05.470Z,6.75
2023-05-14T07:52:32.636Z,5.88
2023-05-14T07:55:01.727Z,5.95
2023-05-14T07:57:28.725Z,6.40
2023-05-14T07:59:57.309Z,6.18
2023-05-14T08:02:24.973Z,6.60
2023-05-14T08:04:52.427Z,7.30
2023-05-14T08:07:21.325Z,6.18
2023-05-14T08:09:48.642Z,5.97
2023-05-14T08:12:18.143Z,6.28
2023-05-14T08:14:45.180Z,6.60
2023-05-14T08:17:14.261Z,6.05
2023-05-14T08:19:41.309Z,6.28
2023-05-14T08:22:08.465Z,5.65
2023-05-14T08:24:35.676Z,5.97
2023-05-14T08:27:02.737Z,6.40
2023-05-14T08:29:29.783Z,6.32
2023-05-14T08:31:58.247Z,6.18
2023-05-14T08:34:26.661Z,5.40
2023-05-14T08:36:54.097Z,5.80
2023-05-14T08:39:22.571Z,5.95
2023-05-14T08:41:49.982Z,5.15
2023-05-14T08:44:23.590Z,5.68
2023-05-14T08:46:52.050Z,5.10
2023-05-14T08:49:36.715Z,5.57
2023-05-14T08:52:04.442Z,5.07
2023-05-14T08:54:32.696Z,5.43
2023-05-14T08:56:59.868Z,5.18
2023-05-14T08:59:27.258Z,5.28
2023-05-14T09:01:56.418Z,5.03
2023-05-14T09:04:25.653Z,4.90
2023-05-14T09:06:54.733Z,4.05
2023-05-14T09:09:23.334Z,3.88
2023-05-14T09:11:52.673Z,4.00
2023-05-14T09:14:20.673Z,4.03
2023-05-14T09:16:49.871Z,4.15
2023-05-14T09:19:19.496Z,4.47
2023-05-14T09:21:48.927Z,4.28
2023-05-14T09:24:24.129Z,3.70
2023-05-14T09:26:55.359Z,3.85
2023-05-14T09:29:25.239Z,4.00
2023-05-14T09:31:52.637Z,3.58
2023-05-14T09:34:30.967Z,3.80
2023-05-14T09:37:01.879Z,3.83
2023-05-14T09:39:29.999Z,3.63
2023-05-14T09:41:57.378Z,3.85
2023-05-14T09:44:25.576Z,3.38
2023-05-14T09:46:54.122Z,4.13
2023-05-14T09:49:22.554Z,4.00
2023-05-14T09:51:50.549Z,3.72
2023-05-14T09:54:17.934Z,3.50
2023-05-14T09:56:44.973Z,3.75
2023-05-14T09:59:13.270Z,3.78
2023-05-14T10:01:43.515Z,3.78
2023-05-14T10:04:12.407Z,3.88
2023-05-14T10:06:42.287Z,4.30
2023-05-14T10:09:14.272Z,4.25
2023-05-14T10:11:45.565Z,3.67
2023-05-14T10:14:24.974Z,3.72
2023-05-14T10:16:53.605Z,3.08
2023-05-14T10:19:24.054Z,3.13
2023-05-14T10:21:57.580Z,3.08
2023-05-14T10:24:25.632Z,2.58
2023-05-14T10:26:53.504Z,3.58
2023-05-14T10:29:21.000Z,4.15
2023-05-14T10:31:56.256Z,3.63
2023-05-14T10:34:43.515Z,3.88
2023-05-14T10:37:12.130Z,3.25
2023-05-14T10:39:49.798Z,3.38
2023-05-14T10:42:24.430Z,3.85
2023-05-14T10:45:01.822Z,3.45
2023-05-14T10:49:58.309Z,3.15
2023-05-14T10:52:25.975Z,3.80
2023-05-14T10:54:56.495Z,3.40
2023-05-14T10:57:26.440Z,3.33
2023-05-14T10:59:58.388Z,3.40
2023-05-14T11:02:39.777Z,4.05
2023-05-14T11:05:17.781Z,3.72
2023-05-14T11:07:47.627Z,3.15
2023-05-14T11:10:18.248Z,3.35
2023-05-14T11:12:47.505Z,3.15
2023-05-14T11:15:16.636Z,4.18
2023-05-14T11:17:45.260Z,3.47
2023-05-14T11:20:13.002Z,3.50
2023-05-14T11:22:41.505Z,3.65
2023-05-14T11:25:09.779Z,3.53
2023-05-14T11:27:40.015Z,3.90
2023-05-14T11:30:14.471Z,4.40
2023-05-14T11:32:42.034Z,3.72
2023-05-14T11:35:09.137Z,4.03
2023-05-14T11:37:36.462Z,4.65
2023-05-14T11:40:10.418Z,4.32
2023-05-14T11:42:38.596Z,4.18
2023-05-14T11:45:06.529Z,4.13
2023-05-14T11:47:33.703Z,5.20
2023-05-14T11:50:01.701Z,4.68
2023-05-14T11:52:28.745Z,5.03
2023-05-14T11:54:55.566Z,4.95
2023-05-14T11:57:23.291Z,5.05
2023-05-14T11:59:58.182Z,4.95
2023-05-14T12:02:29.719Z,5.60
2023-05-14T12:04:57.782Z,5.65
2023-05-14T12:07:30.978Z,5.35
2023-05-14T12:10:01.855Z,5.00
2023-05-14T12:12:36.374Z,6.15
2023-05-14T12:15:10.611Z,5.80
2023-05-14T12:17:38.109Z,5.63
2023-05-14T12:20:08.761Z,6.43
2023-05-14T12:22:37.083Z,4.95
2023-05-14T12:25:04.460Z,5.47
2023-05-14T12:27:31.704Z,5.30
2023-05-14T12:32:36.436Z,5.25
2023-05-14T12:35:04.129Z,4.38
2023-05-14T12:37:31.380Z,4.18
2023-05-14T12:39:58.649Z,4.00
2023-05-14T12:42:25.730Z,4.00
2023-05-14T12:44:53.022Z,3.58
2023-05-14T12:47:19.954Z,3.90
2023-05-14T12:49:46.695Z,3.28
2023-05-14T12:54:43.749Z,4.03
2023-05-14T12:57:10.768Z,3.25
2023-05-14T12:59:38.011Z,4.07
2023-05-14T13:02:05.962Z,3.17
2023-05-14T13:04:33.016Z,3.60
2023-05-14T13:07:00.595Z,4.22
2023-05-14T13:09:28.731Z,3.22
2023-05-14T13:11:56.495Z,2.65
2023-05-14T13:14:23.866Z,3.42
2023-05-14T13:16:50.988Z,3.45
2023-05-14T13:19:17.888Z,3.40
2023-05-14T13:21:44.951Z,4.03
2023-05-14T13:24:11.868Z,3.63
2023-05-14T13:26:39.482Z,3.10
2023-05-14T13:29:07.022Z,3.72
2023-05-14T13:31:34.277Z,3.40
2023-05-14T13:34:02.756Z,3.20
2023-05-14T13:36:32.622Z,2.95
2023-05-14T13:38:59.432Z,3.47
2023-05-14T13:41:26.738Z,3.40
2023-05-14T13:43:53.958Z,4.68
2023-05-14T13:46:22.257Z,3.60
2023-05-14T13:48:49.251Z,3.65
2023-05-14T13:51:16.748Z,3.92
2023-05-14T13:53:44.896Z,4.10
2023-05-14T13:56:12.255Z,3.53
2023-05-14T13:58:39.327Z,3.78
2023-05-14T14:01:06.627Z,3.38
2023-05-14T14:03:33.771Z,3.47
2023-05-14T14:06:01.086Z,3.65
2023-05-14T14:08:27.944Z,3.22
2023-05-14T14:10:55.682Z,4.07
2023-05-14T14:13:23.284Z,3.15
2023-05-14T14:15:50.521Z,3.60
2023-05-14T14:18:17.554Z,3.47
2023-05-14T14:20:44.831Z,4.13
2023-05-14T14:23:11.899Z,3.30
2023-05-14T14:25:38.931Z,3.10
2023-05-14T14:28:05.744Z,2.83
2023-05-14T14:30:33.371Z,3.13
2023-05-14T14:33:01.536Z,3.80
2023-05-14T14:35:29.065Z,3.17
2023-05-14T14:37:55.901Z,3.80
2023-05-14T14:40:24.090Z,3.22
2023-05-14T14:42:51.120Z,3.83
2023-05-14T14:45:18.381Z,4.10
2023-05-14T14:47:46.875Z,4.30
2023-05-14T14:50:13.964Z,3.50
2023-05-14T14:52:45.674Z,3.35
2023-05-14T14:55:13.251Z,4.30
2023-05-14T14:57:40.641Z,8.60
2023-05-14T15:00:08.129Z,4.57
2023-05-14T15:02:35.689Z,4.65
2023-05-14T15:05:03.349Z,3.72
2023-05-14T15:07:33.154Z,4.47
2023-05-14T15:10:00.665Z,4.97
2023-05-14T15:12:27.935Z,4.82
2023-05-14T15:14:55.160Z,4.45
2023-05-14T15:17:22.196Z,4.60
2023-05-14T15:19:49.087Z,4.80
2023-05-14T15:22:16.232Z,5.53
2023-05-14T15:24:43.041Z,4.28
2023-05-14T15:27:10.710Z,7.03
2023-05-14T15:29:37.919Z,4.35
2023-05-14T15:32:06.040Z,3.83
2023-05-14T15:34:33.014Z,4.55
2023-05-14T15:37:00.065Z,3.33
2023-05-14T15:39:28.467Z,3.50
2023-05-14T15:41:56.882Z,4.50
2023-05-14T15:44:24.131Z,6.22
2023-05-14T15:46:55.685Z,6.30
2023-05-14T15:51:49.929Z,4.80
2023-05-14T15:54:18.907Z,5.10
2023-05-14T15:56:47.020Z,3.70
2023-05-14T15:59:15.287Z,5.75
2023-05-14T16:01:42.279Z,5.57
2023-05-14T16:04:09.383Z,6.20
2023-05-14T16:06:36.672Z,4.95
2023-05-14T16:09:03.969Z,7.22
2023-05-14T16:11:30.810Z,4.82
2023-05-14T16:13:59.008Z,4.35
2023-05-14T16:16:27.112Z,4.53
2023-05-14T16:18:54.073Z,5.30
2023-05-14T16:21:21.074Z,4.25
2023-05-14T16:23:48.157Z,4.25
2023-05-14T16:26:15.488Z,4.90
2023-05-14T16:28:42.863Z,4.10
2023-05-14T16:31:09.957Z,4.13
2023-05-14T16:33:36.939Z,4.75
2023-05-14T16:36:04.453Z,5.10
2023-05-14T16:38:31.338Z,4.53
2023-05-14T16:40:59.279Z,4.93
2023-05-14T16:43:26.628Z,4.53
2023-05-14T16:45:54.165Z,4.25
2023-05-14T16:48:21.839Z,4.55
2023-05-14T16:50:51.484Z,4.93
2023-05-14T16:53:18.242Z,5.57
2023-05-14T16:55:45.351Z,4.80
2023-05-14T16:58:14.457Z,5.45
2023-05-14T17:00:41.458Z,4.70
2023-05-14T17:03:08.569Z,4.40
2023-05-14T17:05:36.413Z,4.43
2023-05-14T17:08:04.985Z,4.70
2023-05-14T17:10:33.509Z,5.00
2023-05-14T17:13:00.757Z,5.78
2023-05-14T17:15:28.062Z,4.65
2023-05-14T17:18:05.220Z,5.18
2023-05-14T17:20:32.373Z,3.97
2023-05-14T17:23:01.455Z,4.30
2023-05-14T17:25:28.777Z,5.15
2023-05-14T17:27:55.847Z,5.57
2023-05-14T17:30:23.418Z,4.68
2023-05-14T17:32:51.313Z,5.15
2023-05-14T17:35:19.851Z,4.93
2023-05-14T17:37:46.857Z,5.30
2023-05-14T17:40:14.129Z,5.50
2023-05-14T17:42:40.937Z,6.10
2023-05-14T17:45:09.376Z,4.55
2023-05-14T17:47:36.571Z,5.80
2023-05-14T17:50:03.931Z,5.40
2023-05-14T17:52:30.840Z,4.55
2023-05-14T17:54:57.701Z,4.70
2023-05-14T17:57:26.328Z,4.53
2023-05-14T17:59:53.532Z,5.45
2023-05-14T18:02:20.593Z,6.32
2023-05-14T18:04:47.679Z,4.55
2023-05-14T18:07:14.765Z,5.15
2023-05-14T18:09:48.822Z,5.90
2023-05-14T18:12:16.315Z,5.72
2023-05-14T18:14:52.828Z,6.75
2023-05-14T18:17:20.118Z,5.05
2023-05-14T18:19:49.079Z,5.75
2023-05-14T18:22:17.309Z,5.55
2023-05-14T18:24:44.582Z,5.65
2023-05-14T18:27:11.580Z,5.40
2023-05-14T18:29:45.897Z,5.63
2023-05-14T18:32:12.799Z,5.28
2023-05-14T18:34:39.831Z,4.50
2023-05-14T18:37:07.571Z,5.20
2023-05-14T18:39:40.027Z,4.72
2023-05-14T18:42:08.016Z,5.38
2023-05-14T18:44:35.004Z,4.90
2023-05-14T18:47:02.011Z,5.20
2023-05-14T18:49:30.330Z,5.60
2023-05-14T18:51:57.456Z,5.13
2023-05-14T18:54:25.643Z,5.30
2023-05-14T18:56:52.980Z,5.35
2023-05-14T18:59:20.349Z,6.35
2023-05-14T19:01:47.191Z,5.15
2023-05-14T19:04:15.439Z,6.15
2023-05-14T19:06:42.807Z,5.68
2023-05-14T19:09:12.111Z,5.72
2023-05-14T19:11:38.920Z,9.25
2023-05-14T19:14:07.027Z,11.52
2023-05-14T19:16:34.114Z,9.70
2023-05-14T19:19:01.150Z,6.63
2023-05-14T19:21:28.079Z,6.18
2023-05-14T19:23:54.994Z,6.00
2023-05-14T19:26:22.066Z,7.00
2023-05-14T19:28:49.056Z,6.10
2023-05-14T19:31:16.441Z,6.40
2023-05-14T19:33:44.534Z,6.50
2023-05-14T19:36:11.565Z,6.53
2023-05-14T19:38:38.551Z,6.80
2023-05-14T19:41:05.635Z,6.60
2023-05-14T19:43:32.534Z,6.57
2023-05-14T19:46:01.470Z,6.28
2023-05-14T19:48:31.753Z,7.63
2023-05-14T19:50:59.074Z,7.20
2023-05-14T19:53:30.156Z,8.02
2023-05-14T19:55:58.044Z,6.25
2023-05-14T19:58:27.093Z,7.53
2023-05-14T20:00:54.987Z,8.05
2023-05-14T20:03:27.921Z,7.53
2023-05-14T20:05:55.920Z,7.32
2023-05-14T20:08:22.851Z,7.57
2023-05-14T20:10:49.924Z,7.20
2023-05-14T20:13:18.052Z,7.10
2023-05-14T20:15:45.687Z,6.85
2023-05-14T20:18:14.303Z,7.28
2023-05-14T20:20:41.260Z,8.13
2023-05-14T20:23:08.465Z,7.93
2023-05-14T20:25:35.573Z,8.30
2023-05-14T20:28:02.467Z,8.95
2023-05-14T20:30:29.517Z,10.32
2023-05-14T20:32:56.893Z,10.80
2023-05-14T20:35:25.298Z,8.63
2023-05-14T20:37:52.632Z,7.18
2023-05-14T20:40:21.598Z,7.25
2023-05-14T20:42:50.525Z,7.20
2023-05-14T20:45:17.741Z,8.55
2023-05-14T20:47:45.048Z,7.20
2023-05-14T20:50:13.793Z,7.13
2023-05-14T20:52:41.126Z,6.95
2023-05-14T20:55:08.770Z,7.05
2023-05-14T20:57:35.680Z,6.88
2023-05-14T21:00:08.180Z,7.10
2023-05-14T21:02:35.684Z,6.70
2023-05-14T21:05:07.447Z,6.45
2023-05-14T21:07:34.497Z,7.25
2023-05-14T21:10:02.003Z,7.18
2023-05-14T21:12:28.947Z,7.65
2023-05-14T21:14:55.994Z,8.10
2023-05-14T21:17:23.107Z,7.70
2023-05-14T21:19:50.172Z,8.30
2023-05-14T21:22:17.167Z,8.23
2023-05-14T21:24:43.982Z,8.90
2023-05-14T21:27:11.021Z,7.72
2023-05-14T21:29:38.141Z,8.07
2023-05-14T21:32:05.739Z,7.63
2023-05-14T21:34:32.592Z,7.30
2023-05-14T21:37:01.887Z,6.95
2023-05-14T21:39:28.893Z,7.13
2023-05-14T21:41:55.947Z,7.30
2023-05-14T21:44:22.988Z,7.30
2023-05-14T21:46:50.354Z,7.53
2023-05-14T21:49:17.453Z,6.43
2023-05-14T21:51:44.771Z,6.50
2023-05-14T21:54:12.015Z,6.80
2023-05-14T21:56:40.074Z,6.88
2023-05-14T21:59:06.992Z,7.28
2023-05-14T22:01:38.571Z,6.38
2023-05-14T22:04:13.211Z,6.95
2023-05-14T22:06:40.148Z,6.85
2023-05-14T22:09:07.259Z,6.90
2023-05-14T22:11:34.205Z,7.05
2023-05-14T22:14:01.303Z,7.28
2023-05-14T22:16:28.663Z,6.85
2023-05-14T22:18:55.886Z,6.60
2023-05-14T22:21:23.047Z,6.90
2023-05-14T22:23:50.564Z,7.20
2023-05-14T22:26:17.919Z,7.97
2023-05-14T22:28:44.751Z,7.43
2023-05-14T22:31:11.763Z,7.32
2023-05-14T22:33:38.722Z,7.78
2023-05-14T22:36:07.201Z,7.45
2023-05-14T22:38:34.751Z,7.80
2023-05-14T22:41:01.674Z,8.00
2023-05-14T22:43:29.234Z,7.68
2023-05-14T22:45:56.263Z,6.97
2023-05-14T22:48:24.307Z,7.13
2023-05-14T22:50:52.542Z,6.95
2023-05-14T22:53:19.503Z,7.60
2023-05-14T22:55:46.655Z,7.93
2023-05-14T22:58:13.738Z,7.38
2023-05-14T23:00:40.749Z,6.82
2023-05-14T23:03:07.924Z,6.65
2023-05-14T23:05:34.920Z,6.85
2023-05-14T23:08:01.942Z,6.95
2023-05-14T23:10:29.094Z,7.10
2023-05-14T23:12:56.534Z,6.60
2023-05-14T23:15:23.628Z,6.72
2023-05-14T23:17:51.115Z,7.53
2023-05-14T23:20:18.355Z,7.75
2023-05-14T23:22:47.453Z,7.82
2023-05-14T23:25:14.420Z,6.60
2023-05-14T23:27:41.708Z,7.40
2023-05-14T23:30:11.366Z,7.70
2023-05-14T23:32:38.223Z,9.65
2023-05-14T23:35:05.734Z,8.00
2023-05-14T23:37:34.132Z,7.53
2023-05-14T23:40:02.459Z,7.50
2023-05-14T23:42:29.781Z,7.68
2023-05-14T23:44:56.978Z,7.50
2023-05-14T23:47:24.278Z,7.70
2023-05-14T23:49:51.300Z,8.05
2023-05-14T23:52:18.230Z,7.00
2023-05-14T23:54:46.288Z,7.30
2023-05-14T23:57:14.640Z,7.43
2023-05-14T23:59:41.779Z,6.85
